sensor_id;sensor_type;location;lat;lon;timestamp;P1;durP1;ratioP1;P2;durP2;ratioP2
12966;SDS011;6548;49.996;8.238;2023-09-18T00:01:49;8.65;;;5.45;;
12966;SDS011;6548;49.996;8.238;2023-09-18T00:04:14;8.30;;;5.40;;
12966;SDS011;6548;49.996;8.238;2023-09-18T00:06:40;11.07;;;6.20;;
12966;SDS011;6548;49.996;8.238;2023-09-18T00:09:05;12.27;;;6.32;;
12966;SDS011;6548;49.996;8.238;2023-09-18T00:11:36;10.43;;;6.25;;
12966;SDS011;6548;49.996;8.238;2023-09-18T00:14:02;8.95;;;5.43;;
12966;SDS011;6548;49.996;8.238;2023-09-18T00:16:28;6.53;;;5.20;;
12966;SDS011;6548;49.996;8.238;2023-09-18T00:18:54;11.43;;;6.00;;
12966;SDS011;6548;49.996;8.238;2023-09-18T00:21:19;8.57;;;6.13;;
12966;SDS011;6548;49.996;8.238;2023-09-18T00:23:45;11.90;;;6.00;;
12966;SDS011;6548;49.996;8.238;2023-09-18T00:26:11;9.82;;;5.88;;
12966;SDS011;6548;49.996;8.238;2023-09-18T00:28:37;9.43;;;5.97;;
12966;SDS011;6548;49.996;8.238;2023-09-18T00:31:02;11.55;;;5.70;;
12966;SDS011;6548;49.996;8.238;2023-09-18T00:33:28;7.63;;;5.68;;
12966;SDS011;6548;49.996;8.238;2023-09-18T00:35:53;10.98;;;5.90;;
12966;SDS011;6548;49.996;8.238;2023-09-18T00:38:19;13.90;;;6.40;;
12966;SDS011;6548;49.996;8.238;2023-09-18T00:40:45;7.55;;;5.10;;
12966;SDS011;6548;49.996;8.238;2023-09-18T00:43:10;14.40;;;6.40;;
12966;SDS011;6548;49.996;8.238;2023-09-18T00:45:38;10.07;;;5.97;;
12966;SDS011;6548;49.996;8.238;2023-09-18T00:48:06;8.77;;;5.53;;
12966;SDS011;6548;49.996;8.238;2023-09-18T00:50:32;10.13;;;5.95;;
12966;SDS011;6548;49.996;8.238;2023-09-18T00:53:00;11.63;;;5.40;;
12966;SDS011;6548;49.996;8.238;2023-09-18T00:55:27;12.75;;;5.15;;
12966;SDS011;6548;49.996;8.238;2023-09-18T00:57:55;10.10;;;5.65;;
12966;SDS011;6548;49.996;8.238;2023-09-18T01:00:21;11.35;;;5.25;;
12966;SDS011;6548;49.996;8.238;2023-09-18T01:02:47;8.63;;;6.18;;
12966;SDS011;6548;49.996;8.238;2023-09-18T01:05:13;8.05;;;5.30;;
12966;SDS011;6548;49.996;8.238;2023-09-18T01:07:41;9.95;;;5.43;;
12966;SDS011;6548;49.996;8.238;2023-09-18T01:10:07;6.60;;;5.28;;
12966;SDS011;6548;49.996;8.238;2023-09-18T01:17:39;9.45;;;6.22;;
12966;SDS011;6548;49.996;8.238;2023-09-18T01:20:09;8.20;;;5.43;;
12966;SDS011;6548;49.996;8.238;2023-09-18T01:22:35;7.65;;;5.47;;
12966;SDS011;6548;49.996;8.238;2023-09-18T01:25:01;7.03;;;5.25;;
12966;SDS011;6548;49.996;8.238;2023-09-18T01:27:27;9.85;;;5.10;;
12966;SDS011;6548;49.996;8.238;2023-09-18T01:29:53;9.73;;;5.47;;
12966;SDS011;6548;49.996;8.238;2023-09-18T01:32:18;10.50;;;5.30;;
12966;SDS011;6548;49.996;8.238;2023-09-18T01:34:47;8.52;;;5.43;;
12966;SDS011;6548;49.996;8.238;2023-09-18T01:37:14;9.68;;;5.45;;
12966;SDS011;6548;49.996;8.238;2023-09-18T01:39:42;10.43;;;5.32;;
12966;SDS011;6548;49.996;8.238;2023-09-18T01:42:09;7.45;;;5.00;;
12966;SDS011;6548;49.996;8.238;2023-09-18T01:44:36;10.88;;;5.25;;
12966;SDS011;6548;49.996;8.238;2023-09-18T01:47:08;8.52;;;5.45;;
12966;SDS011;6548;49.996;8.238;2023-09-18T01:49:37;8.05;;;5.72;;
12966;SDS011;6548;49.996;8.238;2023-09-18T01:52:04;8.30;;;5.55;;
12966;SDS011;6548;49.996;8.238;2023-09-18T01:54:31;11.27;;;5.45;;
12966;SDS011;6548;49.996;8.238;2023-09-18T01:56:57;10.80;;;5.80;;
12966;SDS011;6548;49.996;8.238;2023-09-18T01:59:23;9.60;;;5.53;;
12966;SDS011;6548;49.996;8.238;2023-09-18T02:01:49;8.10;;;5.50;;
12966;SDS011;6548;49.996;8.238;2023-09-18T02:04:15;13.27;;;7.55;;
12966;SDS011;6548;49.996;8.238;2023-09-18T02:06:42;8.32;;;5.78;;
12966;SDS011;6548;49.996;8.238;2023-09-18T02:09:08;11.80;;;6.07;;
12966;SDS011;6548;49.996;8.238;2023-09-18T02:11:35;8.40;;;6.25;;
12966;SDS011;6548;49.996;8.238;2023-09-18T02:14:04;11.63;;;5.72;;
12966;SDS011;6548;49.996;8.238;2023-09-18T02:16:34;8.90;;;6.03;;
12966;SDS011;6548;49.996;8.238;2023-09-18T02:19:01;9.38;;;5.72;;
12966;SDS011;6548;49.996;8.238;2023-09-18T02:21:27;9.77;;;5.93;;
12966;SDS011;6548;49.996;8.238;2023-09-18T02:23:53;12.85;;;7.03;;
12966;SDS011;6548;49.996;8.238;2023-09-18T02:26:20;9.13;;;6.75;;
12966;SDS011;6548;49.996;8.238;2023-09-18T02:28:46;10.75;;;5.53;;
12966;SDS011;6548;49.996;8.238;2023-09-18T02:31:12;9.38;;;5.90;;
12966;SDS011;6548;49.996;8.238;2023-09-18T02:33:38;9.00;;;6.38;;
12966;SDS011;6548;49.996;8.238;2023-09-18T02:36:04;8.43;;;5.63;;
12966;SDS011;6548;49.996;8.238;2023-09-18T02:38:30;11.32;;;5.57;;
12966;SDS011;6548;49.996;8.238;2023-09-18T02:40:55;9.65;;;5.47;;
12966;SDS011;6548;49.996;8.238;2023-09-18T02:43:22;6.93;;;4.93;;
12966;SDS011;6548;49.996;8.238;2023-09-18T02:45:48;12.45;;;6.13;;
12966;SDS011;6548;49.996;8.238;2023-09-18T02:48:14;12.05;;;6.40;;
12966;SDS011;6548;49.996;8.238;2023-09-18T02:50:40;8.98;;;5.85;;
12966;SDS011;6548;49.996;8.238;2023-09-18T02:53:05;10.82;;;5.72;;
12966;SDS011;6548;49.996;8.238;2023-09-18T02:55:33;9.75;;;5.50;;
12966;SDS011;6548;49.996;8.238;2023-09-18T02:57:59;10.75;;;5.60;;
12966;SDS011;6548;49.996;8.238;2023-09-18T03:00:24;8.43;;;5.57;;
12966;SDS011;6548;49.996;8.238;2023-09-18T03:02:50;8.00;;;5.53;;
12966;SDS011;6548;49.996;8.238;2023-09-18T03:05:15;8.85;;;5.43;;
12966;SDS011;6548;49.996;8.238;2023-09-18T03:07:41;12.38;;;5.85;;
12966;SDS011;6548;49.996;8.238;2023-09-18T03:10:06;11.05;;;5.30;;
12966;SDS011;6548;49.996;8.238;2023-09-18T03:12:32;9.30;;;5.53;;
12966;SDS011;6548;49.996;8.238;2023-09-18T03:14:58;8.68;;;5.82;;
12966;SDS011;6548;49.996;8.238;2023-09-18T03:17:24;10.88;;;6.18;;
12966;SDS011;6548;49.996;8.238;2023-09-18T03:19:50;8.15;;;6.03;;
12966;SDS011;6548;49.996;8.238;2023-09-18T03:22:15;11.82;;;5.78;;
12966;SDS011;6548;49.996;8.238;2023-09-18T03:24:41;9.07;;;5.90;;
12966;SDS011;6548;49.996;8.238;2023-09-18T03:27:06;8.50;;;5.30;;
12966;SDS011;6548;49.996;8.238;2023-09-18T03:29:32;12.13;;;5.85;;
12966;SDS011;6548;49.996;8.238;2023-09-18T03:31:57;12.38;;;6.55;;
12966;SDS011;6548;49.996;8.238;2023-09-18T03:34:24;14.32;;;6.07;;
12966;SDS011;6548;49.996;8.238;2023-09-18T03:36:52;10.02;;;6.05;;
12966;SDS011;6548;49.996;8.238;2023-09-18T03:39:18;10.38;;;6.05;;
12966;SDS011;6548;49.996;8.238;2023-09-18T03:41:45;13.88;;;6.47;;
12966;SDS011;6548;49.996;8.238;2023-09-18T03:44:10;9.13;;;5.45;;
12966;SDS011;6548;49.996;8.238;2023-09-18T03:46:36;9.63;;;5.88;;
12966;SDS011;6548;49.996;8.238;2023-09-18T03:49:02;9.95;;;5.32;;
12966;SDS011;6548;49.996;8.238;2023-09-18T03:51:28;9.13;;;5.35;;
12966;SDS011;6548;49.996;8.238;2023-09-18T05:16:13;7.72;;;4.43;;
12966;SDS011;6548;49.996;8.238;2023-09-18T05:18:39;6.80;;;3.53;;
12966;SDS011;6548;49.996;8.238;2023-09-18T05:21:06;10.90;;;4.18;;
12966;SDS011;6548;49.996;8.238;2023-09-18T05:23:32;7.78;;;4.05;;
12966;SDS011;6548;49.996;8.238;2023-09-18T05:25:57;7.28;;;3.75;;
12966;SDS011;6548;49.996;8.238;2023-09-18T05:28:24;11.20;;;4.45;;
12966;SDS011;6548;49.996;8.238;2023-09-18T05:30:50;8.07;;;3.67;;
12966;SDS011;6548;49.996;8.238;2023-09-18T05:33:15;10.63;;;3.75;;
12966;SDS011;6548;49.996;8.238;2023-09-18T05:35:41;10.40;;;3.58;;
12966;SDS011;6548;49.996;8.238;2023-09-18T05:38:09;7.22;;;3.75;;
12966;SDS011;6548;49.996;8.238;2023-09-18T05:40:36;7.53;;;4.35;;
12966;SDS011;6548;49.996;8.238;2023-09-18T05:43:01;9.13;;;3.50;;
12966;SDS011;6548;49.996;8.238;2023-09-18T05:45:27;9.45;;;3.17;;
12966;SDS011;6548;49.996;8.238;2023-09-18T05:47:53;11.23;;;4.30;;
12966;SDS011;6548;49.996;8.238;2023-09-18T05:50:26;9.90;;;3.55;;
12966;SDS011;6548;49.996;8.238;2023-09-18T05:52:54;11.45;;;3.67;;
12966;SDS011;6548;49.996;8.238;2023-09-18T05:55:19;10.18;;;3.45;;
12966;SDS011;6548;49.996;8.238;2023-09-18T05:57:45;12.25;;;3.25;;
12966;SDS011;6548;49.996;8.238;2023-09-18T06:00:11;8.20;;;3.58;;
12966;SDS011;6548;49.996;8.238;2023-09-18T06:02:38;12.38;;;4.65;;
12966;SDS011;6548;49.996;8.238;2023-09-18T06:05:05;11.43;;;3.47;;
12966;SDS011;6548;49.996;8.238;2023-09-18T06:07:31;10.48;;;3.50;;
12966;SDS011;6548;49.996;8.238;2023-09-18T06:09:57;9.18;;;3.58;;
12966;SDS011;6548;49.996;8.238;2023-09-18T06:12:23;9.93;;;3.30;;
12966;SDS011;6548;49.996;8.238;2023-09-18T06:14:49;6.47;;;3.25;;
12966;SDS011;6548;49.996;8.238;2023-09-18T06:17:16;10.05;;;3.72;;
12966;SDS011;6548;49.996;8.238;2023-09-18T06:19:42;8.18;;;3.42;;
12966;SDS011;6548;49.996;8.238;2023-09-18T06:22:08;11.85;;;3.38;;
12966;SDS011;6548;49.996;8.238;2023-09-18T06:24:34;7.90;;;3.40;;
12966;SDS011;6548;49.996;8.238;2023-09-18T06:27:00;14.80;;;3.53;;
12966;SDS011;6548;49.996;8.238;2023-09-18T06:29:26;15.63;;;3.85;;
12966;SDS011;6548;49.996;8.238;2023-09-18T06:31:52;11.77;;;3.65;;
12966;SDS011;6548;49.996;8.238;2023-09-18T06:34:17;14.23;;;3.97;;
12966;SDS011;6548;49.996;8.238;2023-09-18T06:36:43;10.45;;;3.22;;
12966;SDS011;6548;49.996;8.238;2023-09-18T06:39:09;11.43;;;3.53;;
12966;SDS011;6548;49.996;8.238;2023-09-18T06:41:34;14.10;;;3.58;;
12966;SDS011;6548;49.996;8.238;2023-09-18T06:44:00;11.88;;;3.50;;
12966;SDS011;6548;49.996;8.238;2023-09-18T06:46:28;7.43;;;2.85;;
12966;SDS011;6548;49.996;8.238;2023-09-18T06:48:54;14.98;;;4.65;;
12966;SDS011;6548;49.996;8.238;2023-09-18T06:51:21;15.73;;;4.05;;
12966;SDS011;6548;49.996;8.238;2023-09-18T06:53:46;13.05;;;2.97;;
12966;SDS011;6548;49.996;8.238;2023-09-18T06:56:12;11.45;;;3.15;;
12966;SDS011;6548;49.996;8.238;2023-09-18T06:58:38;13.63;;;3.38;;
12966;SDS011;6548;49.996;8.238;2023-09-18T07:01:03;13.88;;;3.55;;
12966;SDS011;6548;49.996;8.238;2023-09-18T07:03:31;15.90;;;3.45;;
12966;SDS011;6548;49.996;8.238;2023-09-18T07:05:59;16.95;;;5.30;;
12966;SDS011;6548;49.996;8.238;2023-09-18T07:08:25;12.52;;;4.07;;
12966;SDS011;6548;49.996;8.238;2023-09-18T07:10:50;10.27;;;3.22;;
12966;SDS011;6548;49.996;8.238;2023-09-18T07:13:16;12.73;;;3.47;;
12966;SDS011;6548;49.996;8.238;2023-09-18T07:15:42;11.15;;;4.47;;
12966;SDS011;6548;49.996;8.238;2023-09-18T07:18:09;11.90;;;4.00;;
12966;SDS011;6548;49.996;8.238;2023-09-18T07:20:39;8.88;;;3.50;;
12966;SDS011;6548;49.996;8.238;2023-09-18T07:23:10;7.43;;;2.88;;
12966;SDS011;6548;49.996;8.238;2023-09-18T07:25:36;15.02;;;4.18;;
12966;SDS011;6548;49.996;8.238;2023-09-18T07:28:05;11.70;;;4.22;;
12966;SDS011;6548;49.996;8.238;2023-09-18T07:30:31;12.35;;;3.38;;
12966;SDS011;6548;49.996;8.238;2023-09-18T07:32:57;12.75;;;4.30;;
12966;SDS011;6548;49.996;8.238;2023-09-18T07:35:23;9.90;;;3.40;;
12966;SDS011;6548;49.996;8.238;2023-09-18T07:37:49;9.30;;;2.88;;
12966;SDS011;6548;49.996;8.238;2023-09-18T07:40:14;9.60;;;2.97;;
12966;SDS011;6548;49.996;8.238;2023-09-18T07:42:41;12.85;;;3.35;;
12966;SDS011;6548;49.996;8.238;2023-09-18T07:45:08;11.02;;;2.80;;
12966;SDS011;6548;49.996;8.238;2023-09-18T07:47:34;11.32;;;3.17;;
12966;SDS011;6548;49.996;8.238;2023-09-18T07:50:00;8.40;;;2.88;;
12966;SDS011;6548;49.996;8.238;2023-09-18T07:52:25;14.07;;;3.25;;
12966;SDS011;6548;49.996;8.238;2023-09-18T07:54:51;10.18;;;3.42;;
12966;SDS011;6548;49.996;8.238;2023-09-18T07:57:17;10.65;;;3.58;;
12966;SDS011;6548;49.996;8.238;2023-09-18T07:59:43;8.13;;;2.80;;
12966;SDS011;6548;49.996;8.238;2023-09-18T08:02:09;12.43;;;3.05;;
12966;SDS011;6548;49.996;8.238;2023-09-18T08:04:35;7.95;;;3.28;;
12966;SDS011;6548;49.996;8.238;2023-09-18T08:07:00;10.70;;;2.67;;
12966;SDS011;6548;49.996;8.238;2023-09-18T08:09:26;8.50;;;2.72;;
12966;SDS011;6548;49.996;8.238;2023-09-18T08:11:54;13.57;;;2.97;;
12966;SDS011;6548;49.996;8.238;2023-09-18T08:14:20;9.25;;;2.50;;
12966;SDS011;6548;49.996;8.238;2023-09-18T08:16:47;10.70;;;2.92;;
12966;SDS011;6548;49.996;8.238;2023-09-18T08:19:15;9.07;;;2.08;;
12966;SDS011;6548;49.996;8.238;2023-09-18T08:21:44;8.18;;;2.50;;
12966;SDS011;6548;49.996;8.238;2023-09-18T08:24:11;6.18;;;2.63;;
12966;SDS011;6548;49.996;8.238;2023-09-18T08:26:36;11.52;;;2.95;;
12966;SDS011;6548;49.996;8.238;2023-09-18T08:29:02;6.47;;;2.05;;
12966;SDS011;6548;49.996;8.238;2023-09-18T08:31:28;6.50;;;2.75;;
12966;SDS011;6548;49.996;8.238;2023-09-18T08:33:56;7.82;;;2.10;;
12966;SDS011;6548;49.996;8.238;2023-09-18T08:36:22;4.45;;;1.80;;
12966;SDS011;6548;49.996;8.238;2023-09-18T08:38:48;6.63;;;2.00;;
12966;SDS011;6548;49.996;8.238;2023-09-18T08:41:13;8.38;;;2.20;;
12966;SDS011;6548;49.996;8.238;2023-09-18T08:43:42;6.95;;;2.33;;
12966;SDS011;6548;49.996;8.238;2023-09-18T08:46:09;4.15;;;1.88;;
12966;SDS011;6548;49.996;8.238;2023-09-18T08:48:35;5.30;;;1.40;;
12966;SDS011;6548;49.996;8.238;2023-09-18T08:51:02;6.15;;;1.77;;
12966;SDS011;6548;49.996;8.238;2023-09-18T08:53:30;10.93;;;2.33;;
12966;SDS011;6548;49.996;8.238;2023-09-18T08:55:57;6.18;;;1.60;;
12966;SDS011;6548;49.996;8.238;2023-09-18T08:58:26;3.83;;;1.55;;
12966;SDS011;6548;49.996;8.238;2023-09-18T09:00:54;7.18;;;1.73;;
12966;SDS011;6548;49.996;8.238;2023-09-18T09:03:20;4.72;;;1.73;;
12966;SDS011;6548;49.996;8.238;2023-09-18T09:05:46;3.42;;;1.63;;
12966;SDS011;6548;49.996;8.238;2023-09-18T09:08:11;5.18;;;1.38;;
12966;SDS011;6548;49.996;8.238;2023-09-18T09:10:37;9.07;;;1.70;;
12966;SDS011;6548;49.996;8.238;2023-09-18T09:13:03;2.58;;;1.15;;
12966;SDS011;6548;49.996;8.238;2023-09-18T09:15:45;3.60;;;1.35;;
12966;SDS011;6548;49.996;8.238;2023-09-18T09:18:13;4.07;;;1.50;;
12966;SDS011;6548;49.996;8.238;2023-09-18T09:20:52;2.20;;;1.15;;
12966;SDS011;6548;49.996;8.238;2023-09-18T09:23:25;3.55;;;1.42;;
12966;SDS011;6548;49.996;8.238;2023-09-18T09:25:52;1.60;;;1.00;;
12966;SDS011;6548;49.996;8.238;2023-09-18T09:28:28;3.88;;;1.95;;
12966;SDS011;6548;49.996;8.238;2023-09-18T09:30:59;3.85;;;0.98;;
12966;SDS011;6548;49.996;8.238;2023-09-18T09:33:28;3.35;;;1.25;;
12966;SDS011;6548;49.996;8.238;2023-09-18T09:35:55;2.95;;;1.50;;
12966;SDS011;6548;49.996;8.238;2023-09-18T09:38:22;4.88;;;1.42;;
12966;SDS011;6548;49.996;8.238;2023-09-18T09:40:57;3.92;;;0.95;;
12966;SDS011;6548;49.996;8.238;2023-09-18T09:43:24;4.10;;;1.15;;
12966;SDS011;6548;49.996;8.238;2023-09-18T09:45:56;2.83;;;1.23;;
12966;SDS011;6548;49.996;8.238;2023-09-18T09:48:25;2.00;;;1.10;;
12966;SDS011;6548;49.996;8.238;2023-09-18T09:50:51;6.72;;;1.10;;
12966;SDS011;6548;49.996;8.238;2023-09-18T09:53:41;4.88;;;1.15;;
12966;SDS011;6548;49.996;8.238;2023-09-18T09:56:12;2.28;;;1.58;;
12966;SDS011;6548;49.996;8.238;2023-09-18T09:58:38;2.55;;;1.30;;
12966;SDS011;6548;49.996;8.238;2023-09-18T10:01:06;5.60;;;1.10;;
12966;SDS011;6548;49.996;8.238;2023-09-18T10:03:34;5.13;;;1.58;;
12966;SDS011;6548;49.996;8.238;2023-09-18T10:06:00;1.10;;;0.90;;
12966;SDS011;6548;49.996;8.238;2023-09-18T10:08:29;2.45;;;0.95;;
12966;SDS011;6548;49.996;8.238;2023-09-18T10:11:01;1.85;;;1.08;;
12966;SDS011;6548;49.996;8.238;2023-09-18T10:13:34;1.45;;;0.63;;
12966;SDS011;6548;49.996;8.238;2023-09-18T10:16:11;2.42;;;0.98;;
12966;SDS011;6548;49.996;8.238;2023-09-18T10:18:51;5.70;;;1.23;;
12966;SDS011;6548;49.996;8.238;2023-09-18T10:26:51;2.92;;;0.85;;
12966;SDS011;6548;49.996;8.238;2023-09-18T10:29:23;4.00;;;1.13;;
12966;SDS011;6548;49.996;8.238;2023-09-18T10:31:54;3.25;;;1.00;;
12966;SDS011;6548;49.996;8.238;2023-09-18T10:34:20;4.53;;;1.63;;
12966;SDS011;6548;49.996;8.238;2023-09-18T10:36:47;3.42;;;1.10;;
12966;SDS011;6548;49.996;8.238;2023-09-18T10:39:13;5.05;;;1.33;;
12966;SDS011;6548;49.996;8.238;2023-09-18T10:41:44;3.33;;;0.98;;
12966;SDS011;6548;49.996;8.238;2023-09-18T10:44:12;3.00;;;1.30;;
12966;SDS011;6548;49.996;8.238;2023-09-18T10:46:39;2.47;;;1.00;;
12966;SDS011;6548;49.996;8.238;2023-09-18T10:49:04;3.50;;;0.90;;
12966;SDS011;6548;49.996;8.238;2023-09-18T10:51:31;2.20;;;1.25;;
12966;SDS011;6548;49.996;8.238;2023-09-18T10:53:58;2.75;;;1.00;;
12966;SDS011;6548;49.996;8.238;2023-09-18T10:56:25;1.58;;;1.10;;
12966;SDS011;6548;49.996;8.238;2023-09-18T10:59:00;3.55;;;1.15;;
12966;SDS011;6548;49.996;8.238;2023-09-18T11:01:29;3.63;;;1.20;;
12966;SDS011;6548;49.996;8.238;2023-09-18T11:03:59;2.33;;;1.08;;
12966;SDS011;6548;49.996;8.238;2023-09-18T11:06:26;2.75;;;1.00;;
12966;SDS011;6548;49.996;8.238;2023-09-18T11:09:03;2.63;;;1.17;;
12966;SDS011;6548;49.996;8.238;2023-09-18T11:11:31;2.65;;;1.45;;
12966;SDS011;6548;49.996;8.238;2023-09-18T11:14:00;1.98;;;1.20;;
12966;SDS011;6548;49.996;8.238;2023-09-18T11:21:27;3.35;;;1.40;;
12966;SDS011;6548;49.996;8.238;2023-09-18T11:26:47;4.45;;;1.08;;
12966;SDS011;6548;49.996;8.238;2023-09-18T11:29:15;3.53;;;1.20;;
12966;SDS011;6548;49.996;8.238;2023-09-18T11:31:48;3.55;;;1.38;;
12966;SDS011;6548;49.996;8.238;2023-09-18T11:34:28;3.05;;;1.75;;
12966;SDS011;6548;49.996;8.238;2023-09-18T11:37:00;1.90;;;1.30;;
12966;SDS011;6548;49.996;8.238;2023-09-18T11:39:36;3.72;;;1.13;;
12966;SDS011;6548;49.996;8.238;2023-09-18T11:42:10;3.15;;;1.08;;
12966;SDS011;6548;49.996;8.238;2023-09-18T11:44:53;3.63;;;1.35;;
12966;SDS011;6548;49.996;8.238;2023-09-18T11:47:23;3.65;;;1.20;;
12966;SDS011;6548;49.996;8.238;2023-09-18T11:52:23;2.63;;;1.38;;
12966;SDS011;6548;49.996;8.238;2023-09-18T11:54:55;3.80;;;1.00;;
12966;SDS011;6548;49.996;8.238;2023-09-18T11:57:21;2.35;;;1.20;;
12966;SDS011;6548;49.996;8.238;2023-09-18T11:59:47;5.15;;;1.30;;
12966;SDS011;6548;49.996;8.238;2023-09-18T12:04:53;4.20;;;1.90;;
12966;SDS011;6548;49.996;8.238;2023-09-18T12:07:19;1.73;;;1.48;;
12966;SDS011;6548;49.996;8.238;2023-09-18T12:09:45;2.80;;;1.40;;
12966;SDS011;6548;49.996;8.238;2023-09-18T12:12:11;3.10;;;1.08;;
12966;SDS011;6548;49.996;8.238;2023-09-18T12:14:39;6.10;;;1.40;;
12966;SDS011;6548;49.996;8.238;2023-09-18T12:17:07;3.50;;;0.90;;
12966;SDS011;6548;49.996;8.238;2023-09-18T12:19:33;3.10;;;1.13;;
12966;SDS011;6548;49.996;8.238;2023-09-18T12:22:00;5.63;;;1.23;;
12966;SDS011;6548;49.996;8.238;2023-09-18T12:24:26;2.65;;;1.40;;
12966;SDS011;6548;49.996;8.238;2023-09-18T12:26:52;2.50;;;1.10;;
12966;SDS011;6548;49.996;8.238;2023-09-18T12:29:19;4.07;;;1.13;;
12966;SDS011;6548;49.996;8.238;2023-09-18T12:31:45;4.68;;;1.98;;
12966;SDS011;6548;49.996;8.238;2023-09-18T12:34:15;4.35;;;1.30;;
12966;SDS011;6548;49.996;8.238;2023-09-18T12:36:45;4.72;;;1.45;;
12966;SDS011;6548;49.996;8.238;2023-09-18T12:39:12;1.90;;;1.10;;
12966;SDS011;6548;49.996;8.238;2023-09-18T12:41:41;3.15;;;1.38;;
12966;SDS011;6548;49.996;8.238;2023-09-18T12:44:08;2.17;;;1.20;;
12966;SDS011;6548;49.996;8.238;2023-09-18T12:46:35;3.53;;;1.42;;
12966;SDS011;6548;49.996;8.238;2023-09-18T12:49:20;2.85;;;1.67;;
12966;SDS011;6548;49.996;8.238;2023-09-18T12:51:58;3.22;;;1.05;;
12966;SDS011;6548;49.996;8.238;2023-09-18T12:57:04;3.50;;;1.13;;
12966;SDS011;6548;49.996;8.238;2023-09-18T12:59:31;1.88;;;1.17;;
12966;SDS011;6548;49.996;8.238;2023-09-18T13:01:58;1.48;;;1.20;;
12966;SDS011;6548;49.996;8.238;2023-09-18T13:04:24;4.05;;;1.02;;
12966;SDS011;6548;49.996;8.238;2023-09-18T13:07:06;4.55;;;1.48;;
12966;SDS011;6548;49.996;8.238;2023-09-18T13:09:35;3.03;;;1.38;;
12966;SDS011;6548;49.996;8.238;2023-09-18T13:12:02;1.52;;;1.35;;
12966;SDS011;6548;49.996;8.238;2023-09-18T13:14:28;4.25;;;1.42;;
12966;SDS011;6548;49.996;8.238;2023-09-18T13:17:00;4.55;;;1.20;;
12966;SDS011;6548;49.996;8.238;2023-09-18T13:19:29;3.75;;;1.35;;
12966;SDS011;6548;49.996;8.238;2023-09-18T13:21:55;3.17;;;1.27;;
12966;SDS011;6548;49.996;8.238;2023-09-18T13:24:27;3.13;;;1.30;;
12966;SDS011;6548;49.996;8.238;2023-09-18T13:26:54;3.35;;;1.10;;
12966;SDS011;6548;49.996;8.238;2023-09-18T13:29:21;5.78;;;1.70;;
12966;SDS011;6548;49.996;8.238;2023-09-18T13:34:17;3.50;;;1.30;;
12966;SDS011;6548;49.996;8.238;2023-09-18T13:36:44;3.60;;;1.25;;
12966;SDS011;6548;49.996;8.238;2023-09-18T13:39:13;6.93;;;1.73;;
12966;SDS011;6548;49.996;8.238;2023-09-18T13:41:41;4.50;;;1.58;;
12966;SDS011;6548;49.996;8.238;2023-09-18T13:44:07;3.30;;;1.20;;
12966;SDS011;6548;49.996;8.238;2023-09-18T13:46:34;3.55;;;1.10;;
12966;SDS011;6548;49.996;8.238;2023-09-18T13:49:01;1.70;;;1.10;;
12966;SDS011;6548;49.996;8.238;2023-09-18T13:51:29;3.47;;;1.42;;
12966;SDS011;6548;49.996;8.238;2023-09-18T13:53:56;4.00;;;1.60;;
12966;SDS011;6548;49.996;8.238;2023-09-18T13:56:22;2.67;;;1.27;;
12966;SDS011;6548;49.996;8.238;2023-09-18T13:58:50;1.85;;;1.20;;
12966;SDS011;6548;49.996;8.238;2023-09-18T14:01:15;4.13;;;1.55;;
12966;SDS011;6548;49.996;8.238;2023-09-18T14:03:41;2.30;;;1.10;;
12966;SDS011;6548;49.996;8.238;2023-09-18T14:06:09;6.05;;;1.40;;
12966;SDS011;6548;49.996;8.238;2023-09-18T14:08:35;4.43;;;1.30;;
12966;SDS011;6548;49.996;8.238;2023-09-18T14:11:03;4.60;;;1.38;;
12966;SDS011;6548;49.996;8.238;2023-09-18T14:13:31;3.53;;;1.60;;
12966;SDS011;6548;49.996;8.238;2023-09-18T14:15:57;5.25;;;1.70;;
12966;SDS011;6548;49.996;8.238;2023-09-18T14:18:22;2.45;;;1.30;;
12966;SDS011;6548;49.996;8.238;2023-09-18T14:20:48;2.75;;;1.30;;
12966;SDS011;6548;49.996;8.238;2023-09-18T14:23:13;6.50;;;1.88;;
12966;SDS011;6548;49.996;8.238;2023-09-18T14:25:39;3.40;;;1.38;;
12966;SDS011;6548;49.996;8.238;2023-09-18T14:28:06;3.40;;;1.55;;
12966;SDS011;6548;49.996;8.238;2023-09-18T14:30:32;6.18;;;1.40;;
12966;SDS011;6548;49.996;8.238;2023-09-18T14:32:58;3.72;;;1.40;;
12966;SDS011;6548;49.996;8.238;2023-09-18T14:35:26;5.00;;;1.67;;
12966;SDS011;6548;49.996;8.238;2023-09-18T14:37:51;3.25;;;1.50;;
12966;SDS011;6548;49.996;8.238;2023-09-18T14:40:17;4.95;;;1.73;;
12966;SDS011;6548;49.996;8.238;2023-09-18T14:42:46;5.07;;;1.52;;
12966;SDS011;6548;49.996;8.238;2023-09-18T14:45:11;2.70;;;1.30;;
12966;SDS011;6548;49.996;8.238;2023-09-18T14:47:38;2.58;;;1.17;;
12966;SDS011;6548;49.996;8.238;2023-09-18T14:50:04;3.65;;;1.50;;
12966;SDS011;6548;49.996;8.238;2023-09-18T14:52:30;4.95;;;1.50;;
12966;SDS011;6548;49.996;8.238;2023-09-18T14:54:57;2.95;;;1.58;;
12966;SDS011;6548;49.996;8.238;2023-09-18T14:57:23;2.28;;;1.50;;
12966;SDS011;6548;49.996;8.238;2023-09-18T14:59:48;4.53;;;2.03;;
12966;SDS011;6548;49.996;8.238;2023-09-18T15:02:14;5.95;;;1.50;;
12966;SDS011;6548;49.996;8.238;2023-09-18T15:04:42;3.22;;;1.38;;
12966;SDS011;6548;49.996;8.238;2023-09-18T15:07:08;3.13;;;1.40;;
12966;SDS011;6548;49.996;8.238;2023-09-18T15:09:35;3.83;;;1.75;;
12966;SDS011;6548;49.996;8.238;2023-09-18T15:12:01;2.60;;;1.65;;
12966;SDS011;6548;49.996;8.238;2023-09-18T15:14:28;5.55;;;1.48;;
12966;SDS011;6548;49.996;8.238;2023-09-18T15:16:53;2.10;;;1.90;;
12966;SDS011;6548;49.996;8.238;2023-09-18T15:19:20;2.63;;;1.42;;
12966;SDS011;6548;49.996;8.238;2023-09-18T15:21:46;2.15;;;1.50;;
12966;SDS011;6548;49.996;8.238;2023-09-18T15:24:12;5.07;;;1.60;;
12966;SDS011;6548;49.996;8.238;2023-09-18T15:26:38;2.17;;;1.75;;
12966;SDS011;6548;49.996;8.238;2023-09-18T15:29:03;6.97;;;1.40;;
12966;SDS011;6548;49.996;8.238;2023-09-18T15:31:29;4.38;;;1.70;;
12966;SDS011;6548;49.996;8.238;2023-09-18T15:33:54;3.38;;;1.45;;
12966;SDS011;6548;49.996;8.238;2023-09-18T15:36:20;4.85;;;2.00;;
12966;SDS011;6548;49.996;8.238;2023-09-18T15:38:48;2.53;;;1.65;;
12966;SDS011;6548;49.996;8.238;2023-09-18T15:41:16;2.75;;;1.40;;
12966;SDS011;6548;49.996;8.238;2023-09-18T15:43:41;3.97;;;1.45;;
12966;SDS011;6548;49.996;8.238;2023-09-18T15:46:09;4.00;;;1.33;;
12966;SDS011;6548;49.996;8.238;2023-09-18T15:48:34;2.08;;;1.40;;
12966;SDS011;6548;49.996;8.238;2023-09-18T15:51:00;2.65;;;1.30;;
12966;SDS011;6548;49.996;8.238;2023-09-18T15:53:25;3.20;;;1.50;;
12966;SDS011;6548;49.996;8.238;2023-09-18T15:55:51;4.00;;;1.42;;
12966;SDS011;6548;49.996;8.238;2023-09-18T15:58:16;4.18;;;1.20;;
12966;SDS011;6548;49.996;8.238;2023-09-18T16:00:44;4.20;;;1.85;;
12966;SDS011;6548;49.996;8.238;2023-09-18T16:03:10;3.10;;;1.77;;
12966;SDS011;6548;49.996;8.238;2023-09-18T16:05:35;2.17;;;1.65;;
12966;SDS011;6548;49.996;8.238;2023-09-18T16:08:01;3.03;;;1.67;;
12966;SDS011;6548;49.996;8.238;2023-09-18T16:10:29;4.75;;;1.88;;
12966;SDS011;6548;49.996;8.238;2023-09-18T16:12:55;3.00;;;1.20;;
12966;SDS011;6548;49.996;8.238;2023-09-18T16:15:20;5.72;;;1.80;;
12966;SDS011;6548;49.996;8.238;2023-09-18T16:17:46;4.82;;;1.80;;
12966;SDS011;6548;49.996;8.238;2023-09-18T16:20:12;3.55;;;1.70;;
12966;SDS011;6548;49.996;8.238;2023-09-18T16:22:38;3.70;;;1.40;;
12966;SDS011;6548;49.996;8.238;2023-09-18T16:25:07;5.05;;;1.30;;
12966;SDS011;6548;49.996;8.238;2023-09-18T16:27:33;2.92;;;1.63;;
12966;SDS011;6548;49.996;8.238;2023-09-18T16:29:58;5.43;;;1.67;;
12966;SDS011;6548;49.996;8.238;2023-09-18T16:32:24;6.53;;;2.10;;
12966;SDS011;6548;49.996;8.238;2023-09-18T16:34:53;2.60;;;1.48;;
12966;SDS011;6548;49.996;8.238;2023-09-18T16:37:19;5.43;;;1.60;;
12966;SDS011;6548;49.996;8.238;2023-09-18T16:39:45;4.18;;;1.40;;
12966;SDS011;6548;49.996;8.238;2023-09-18T16:42:10;3.58;;;1.50;;
12966;SDS011;6548;49.996;8.238;2023-09-18T16:44:36;2.92;;;1.65;;
12966;SDS011;6548;49.996;8.238;2023-09-18T16:47:04;2.03;;;1.10;;
12966;SDS011;6548;49.996;8.238;2023-09-18T16:49:30;3.38;;;2.13;;